Time;durP1;ratioP1;P1;durP2;ratioP2;P2;SDS_P1;SDS_P2;PMS_P1;PMS_P2;Temp;Humidity;BMP_temperature;BMP_pressure;BME280_temperature;BME280_humidity;BME280_pressure;Samples;Min_cycle;Max_cycle;Signal;HPM_P1;HPM_P2
2024/01/31 00:02:20;;;;;;;65.93;38.28;;;;;;;;;;6235264;28;24436;-73
2024/01/31 00:05:21;;;;;;;66.65;38.78;;;;;;;;;;6242734;28;24466;-74
2024/01/31 00:08:23;;;;;;;65.15;39.38;;;;;;;;;;6241230;28;24530;-74
2024/01/31 00:11:28;;;;;;;65.90;38.33;;;;;;;;;;6237971;28;24507;-74
2024/01/31 00:14:30;;;;;;;69.67;39.67;;;;;;;;;;6239148;28;24816;-74
2024/01/31 00:17:31;;;;;;;66.40;38.73;;;;;;;;;;6240498;28;24455;-74
2024/01/31 00:20:33;;;;;;;66.43;39.15;;;;;;;;;;6238910;28;24875;-74
2024/01/31 00:23:34;;;;;;;67.45;40.10;;;;;;;;;;6239975;28;24518;-74
2024/01/31 00:26:37;;;;;;;66.95;39.92;;;;;;;;;;6239197;28;24626;-77
2024/01/31 00:29:39;;;;;;;67.60;39.72;;;;;;;;;;6241490;28;24440;-78
2024/01/31 00:32:40;;;;;;;67.00;39.55;;;;;;;;;;6240650;28;24801;-78
2024/01/31 00:35:42;;;;;;;69.10;40.28;;;;;;;;;;6244873;28;24430;-77
2024/01/31 00:38:43;;;;;;;66.60;40.13;;;;;;;;;;6240146;28;24423;-77
2024/01/31 00:41:47;;;;;;;68.88;40.78;;;;;;;;;;6238263;28;24431;-78
2024/01/31 00:44:49;;;;;;;67.90;40.75;;;;;;;;;;6238832;28;24512;-77
2024/01/31 00:47:52;;;;;;;68.18;40.42;;;;;;;;;;6241714;28;24412;-77
2024/01/31 00:50:54;;;;;;;69.07;41.67;;;;;;;;;;6237799;28;24432;-77
2024/01/31 00:53:56;;;;;;;68.50;41.03;;;;;;;;;;6242191;28;24840;-77
2024/01/31 00:56:59;;;;;;;68.90;40.33;;;;;;;;;;6240644;28;24419;-77
2024/01/31 01:00:04;;;;;;;69.47;40.85;;;;;;;;;;6237876;28;24432;-77
2024/01/31 01:03:06;;;;;;;68.43;41.00;;;;;;;;;;6241513;28;24432;-77
2024/01/31 01:06:09;;;;;;;65.72;39.45;;;;;;;;;;6241586;28;24432;-78
2024/01/31 01:09:11;;;;;;;68.47;39.60;;;;;;;;;;6239278;28;24888;-78
2024/01/31 01:12:14;;;;;;;66.75;40.05;;;;;;;;;;6237508;28;24451;-77
2024/01/31 01:15:18;;;;;;;71.97;40.60;;;;;;;;;;6240583;28;24813;-77
2024/01/31 01:18:20;;;;;;;71.72;41.55;;;;;;;;;;6239737;28;24499;-77
2024/01/31 01:21:22;;;;;;;68.65;40.85;;;;;;;;;;6244138;28;24626;-78
2024/01/31 01:24:24;;;;;;;67.35;40.40;;;;;;;;;;6246373;28;24436;-78
2024/01/31 01:27:27;;;;;;;67.85;40.42;;;;;;;;;;6240127;28;24461;-78
2024/01/31 01:30:29;;;;;;;69.60;41.10;;;;;;;;;;6243433;28;24463;-78
2024/01/31 01:33:31;;;;;;;64.72;40.03;;;;;;;;;;6243835;28;24460;-77
2024/01/31 01:36:32;;;;;;;67.00;41.08;;;;;;;;;;6240997;28;24451;-74
2024/01/31 01:39:34;;;;;;;70.80;41.38;;;;;;;;;;6245866;28;24469;-74
2024/01/31 01:42:39;;;;;;;70.57;41.63;;;;;;;;;;6247096;28;24467;-74
2024/01/31 01:45:41;;;;;;;71.23;41.77;;;;;;;;;;6243275;28;24424;-74
2024/01/31 01:48:43;;;;;;;64.82;39.88;;;;;;;;;;6239446;28;24432;-74
2024/01/31 01:51:45;;;;;;;68.78;41.80;;;;;;;;;;6243290;28;24424;-74
2024/01/31 01:54:46;;;;;;;70.47;42.47;;;;;;;;;;6241705;28;24420;-74
2024/01/31 01:57:49;;;;;;;72.20;41.70;;;;;;;;;;6238173;28;24521;-73
2024/01/31 02:00:51;;;;;;;71.28;41.00;;;;;;;;;;6242365;28;24638;-74
2024/01/31 02:03:57;;;;;;;69.50;41.90;;;;;;;;;;6241663;28;24464;-73
2024/01/31 02:06:58;;;;;;;65.97;40.65;;;;;;;;;;6237646;28;24789;-74
2024/01/31 02:10:00;;;;;;;68.00;41.08;;;;;;;;;;6242974;28;24444;-74
2024/01/31 02:13:03;;;;;;;69.18;41.80;;;;;;;;;;6242850;28;24569;-74
2024/01/31 02:16:04;;;;;;;68.05;41.13;;;;;;;;;;6243520;28;24447;-74
2024/01/31 02:19:06;;;;;;;72.43;42.67;;;;;;;;;;6244381;28;24515;-74
2024/01/31 02:22:09;;;;;;;75.10;44.03;;;;;;;;;;6247568;28;24522;-74
2024/01/31 02:25:14;;;;;;;73.70;42.90;;;;;;;;;;6241319;28;24719;-74
2024/01/31 02:28:16;;;;;;;67.78;40.60;;;;;;;;;;6241160;28;24399;-74
2024/01/31 02:31:17;;;;;;;70.65;42.58;;;;;;;;;;6241757;28;24409;-74
2024/01/31 02:34:19;;;;;;;69.00;42.22;;;;;;;;;;6245840;28;24599;-74
2024/01/31 02:37:20;;;;;;;66.28;41.10;;;;;;;;;;6239006;28;24482;-74
2024/01/31 02:40:25;;;;;;;70.53;42.22;;;;;;;;;;6245645;28;24819;-74
2024/01/31 02:43:27;;;;;;;66.63;41.90;;;;;;;;;;6244065;28;24614;-74
2024/01/31 02:46:29;;;;;;;66.80;41.28;;;;;;;;;;6244948;28;24412;-75
2024/01/31 02:49:30;;;;;;;66.85;40.60;;;;;;;;;;6244004;28;24431;-74
2024/01/31 02:52:32;;;;;;;69.97;41.03;;;;;;;;;;6242163;28;24831;-74
2024/01/31 02:55:35;;;;;;;66.20;40.47;;;;;;;;;;6242352;28;24456;-74
2024/01/31 02:58:37;;;;;;;63.30;40.03;;;;;;;;;;6240448;28;24825;-75
2024/01/31 03:01:44;;;;;;;63.47;39.60;;;;;;;;;;6242903;28;24702;-75
2024/01/31 03:04:45;;;;;;;64.03;40.10;;;;;;;;;;6239949;28;24516;-74
2024/01/31 03:07:49;;;;;;;65.23;40.93;;;;;;;;;;6241089;28;24423;-74
2024/01/31 03:10:52;;;;;;;65.97;41.08;;;;;;;;;;6235776;28;24828;-75
2024/01/31 03:13:54;;;;;;;63.00;40.67;;;;;;;;;;6243635;28;24454;-73
2024/01/31 03:16:55;;;;;;;61.63;39.17;;;;;;;;;;6240491;28;24839;-74
2024/01/31 03:19:57;;;;;;;62.67;39.93;;;;;;;;;;6242033;28;24421;-75
2024/01/31 03:22:59;;;;;;;66.90;40.77;;;;;;;;;;6241956;28;24696;-74
2024/01/31 03:26:01;;;;;;;63.57;40.17;;;;;;;;;;6240354;28;24877;-75
2024/01/31 03:29:03;;;;;;;65.30;39.72;;;;;;;;;;6240105;28;24818;-74
2024/01/31 03:32:05;;;;;;;62.50;40.15;;;;;;;;;;6240925;28;24483;-74
2024/01/31 03:35:08;;;;;;;60.65;38.97;;;;;;;;;;6240318;28;24559;-74
2024/01/31 03:38:09;;;;;;;63.57;39.80;;;;;;;;;;6240812;28;24432;-74
2024/01/31 03:41:12;;;;;;;62.58;38.33;;;;;;;;;;6241827;28;24424;-75
2024/01/31 03:44:14;;;;;;;64.75;39.78;;;;;;;;;;6237652;28;24821;-74
2024/01/31 03:47:15;;;;;;;65.43;39.80;;;;;;;;;;6242507;28;25038;-74
2024/01/31 03:50:17;;;;;;;62.85;39.47;;;;;;;;;;6240179;28;25028;-74
2024/01/31 03:53:18;;;;;;;62.75;39.47;;;;;;;;;;6242399;28;24805;-74
2024/01/31 03:56:21;;;;;;;62.47;39.00;;;;;;;;;;6237460;28;24486;-74
2024/01/31 03:59:23;;;;;;;65.50;40.80;;;;;;;;;;6238607;28;24939;-74
2024/01/31 04:02:25;;;;;;;62.95;40.30;;;;;;;;;;6237947;28;24431;-74
2024/01/31 04:05:27;;;;;;;63.78;40.47;;;;;;;;;;6238195;28;24420;-73
2024/01/31 04:08:28;;;;;;;62.00;39.65;;;;;;;;;;6240455;28;24434;-74
2024/01/31 04:11:34;;;;;;;63.05;39.83;;;;;;;;;;6241781;28;24535;-74
2024/01/31 04:14:36;;;;;;;64.75;39.75;;;;;;;;;;6240597;28;24805;-75
2024/01/31 04:17:38;;;;;;;65.05;40.33;;;;;;;;;;6236317;28;24472;-74
2024/01/31 04:20:40;;;;;;;65.35;40.40;;;;;;;;;;6246992;28;24567;-75
2024/01/31 04:23:41;;;;;;;66.53;39.53;;;;;;;;;;6240377;28;24424;-74
2024/01/31 04:26:44;;;;;;;65.77;39.73;;;;;;;;;;6236032;28;24797;-74
2024/01/31 04:29:46;;;;;;;63.30;39.60;;;;;;;;;;6236400;28;24867;-74
2024/01/31 04:32:48;;;;;;;64.43;40.40;;;;;;;;;;6240421;28;24463;-74
2024/01/31 04:35:51;;;;;;;63.55;39.22;;;;;;;;;;6241250;28;24436;-74
2024/01/31 04:38:52;;;;;;;65.90;39.58;;;;;;;;;;6239226;28;24853;-74
2024/01/31 04:41:55;;;;;;;67.53;40.60;;;;;;;;;;6242280;28;24588;-74
2024/01/31 04:44:57;;;;;;;61.10;39.53;;;;;;;;;;6237265;28;24431;-73
2024/01/31 04:47:58;;;;;;;63.13;39.93;;;;;;;;;;6239883;28;24455;-74
2024/01/31 04:51:02;;;;;;;66.20;40.03;;;;;;;;;;6236704;28;24817;-73
2024/01/31 04:54:04;;;;;;;64.38;39.83;;;;;;;;;;6240282;28;24487;-74
2024/01/31 04:57:07;;;;;;;63.17;40.67;;;;;;;;;;6246193;28;24431;-73
2024/01/31 05:00:13;;;;;;;69.63;40.07;;;;;;;;;;6243647;28;24443;-73
2024/01/31 05:03:14;;;;;;;65.47;40.13;;;;;;;;;;6247105;28;24417;-73
2024/01/31 05:06:16;;;;;;;65.35;40.35;;;;;;;;;;6244979;28;24426;-73
2024/01/31 05:09:18;;;;;;;69.03;41.20;;;;;;;;;;6245312;28;24428;-74
2024/01/31 05:12:22;;;;;;;67.80;41.67;;;;;;;;;;6274724;28;25089;-73
2024/01/31 05:15:23;;;;;;;65.38;40.08;;;;;;;;;;6242457;28;24828;-73
2024/01/31 05:18:25;;;;;;;65.10;39.45;;;;;;;;;;6267298;28;24928;-73
2024/01/31 05:21:27;;;;;;;68.00;40.58;;;;;;;;;;6242679;28;24424;-73
2024/01/31 05:24:28;;;;;;;63.20;39.88;;;;;;;;;;6246941;28;24478;-74
2024/01/31 05:27:31;;;;;;;67.07;39.78;;;;;;;;;;6243945;28;24439;-74
2024/01/31 05:30:33;;;;;;;64.10;39.83;;;;;;;;;;6242848;28;24845;-74
2024/01/31 05:33:34;;;;;;;62.33;39.63;;;;;;;;;;6240213;28;24432;-74
2024/01/31 05:36:36;;;;;;;63.17;40.53;;;;;;;;;;6245236;28;24860;-74
2024/01/31 05:39:37;;;;;;;65.47;39.80;;;;;;;;;;6241608;28;24430;-74
2024/01/31 05:42:40;;;;;;;62.47;40.73;;;;;;;;;;6272889;28;24832;-73
2024/01/31 05:45:43;;;;;;;61.20;38.78;;;;;;;;;;6245043;28;24645;-74
2024/01/31 05:48:45;;;;;;;63.55;39.58;;;;;;;;;;6245978;28;24686;-74
2024/01/31 05:51:47;;;;;;;59.90;38.63;;;;;;;;;;6240722;28;24443;-74
2024/01/31 05:54:48;;;;;;;64.40;40.90;;;;;;;;;;6244729;28;24709;-74
2024/01/31 05:57:52;;;;;;;61.33;39.72;;;;;;;;;;6240285;28;24434;-74
2024/01/31 06:00:53;;;;;;;60.65;39.05;;;;;;;;;;6243569;28;24474;-74
2024/01/31 06:03:55;;;;;;;58.55;38.08;;;;;;;;;;6244516;28;24423;-74
2024/01/31 06:06:56;;;;;;;60.72;39.65;;;;;;;;;;6244073;28;24470;-73
2024/01/31 06:09:58;;;;;;;64.22;39.55;;;;;;;;;;6240033;28;24432;-73
2024/01/31 06:13:01;;;;;;;62.63;39.22;;;;;;;;;;6241193;28;25006;-74
2024/01/31 06:16:03;;;;;;;59.70;38.47;;;;;;;;;;6241316;28;24439;-74
2024/01/31 06:19:04;;;;;;;61.80;39.10;;;;;;;;;;6243242;28;24594;-77
2024/01/31 06:22:07;;;;;;;61.90;39.08;;;;;;;;;;6241580;28;24452;-77
2024/01/31 06:25:08;;;;;;;60.55;38.78;;;;;;;;;;6241506;28;24456;-77
2024/01/31 06:28:11;;;;;;;59.67;38.75;;;;;;;;;;6244300;28;24412;-78
2024/01/31 06:31:24;;;;;;;61.13;38.57;;;;;;;;;;6239540;28;24427;-78
2024/01/31 06:34:25;;;;;;;59.42;38.45;;;;;;;;;;6244720;28;24428;-78
2024/01/31 06:37:27;;;;;;;58.60;38.40;;;;;;;;;;6242739;28;24431;-77
2024/01/31 06:40:31;;;;;;;58.40;38.13;;;;;;;;;;6244323;28;24428;-78
2024/01/31 06:43:34;;;;;;;56.28;37.72;;;;;;;;;;6242542;28;24439;-78
2024/01/31 06:46:36;;;;;;;61.72;38.30;;;;;;;;;;6240972;28;24696;-78
2024/01/31 06:49:40;;;;;;;62.17;39.90;;;;;;;;;;6239201;28;24439;-76
2024/01/31 06:52:42;;;;;;;61.20;38.53;;;;;;;;;;6242073;28;24494;-78
2024/01/31 06:55:44;;;;;;;59.30;38.60;;;;;;;;;;6238303;28;24430;-78
2024/01/31 06:58:51;;;;;;;58.47;38.20;;;;;;;;;;6240685;28;24419;-78
2024/01/31 07:01:53;;;;;;;58.60;38.15;;;;;;;;;;6240777;28;24475;-78
2024/01/31 07:04:54;;;;;;;61.58;39.88;;;;;;;;;;6242166;28;24618;-80
2024/01/31 07:07:56;;;;;;;59.88;38.80;;;;;;;;;;6240957;28;24948;-79
2024/01/31 07:10:58;;;;;;;61.40;39.22;;;;;;;;;;6238888;28;24638;-78
2024/01/31 07:14:00;;;;;;;63.25;39.92;;;;;;;;;;6241315;28;24854;-77
2024/01/31 07:17:02;;;;;;;63.10;39.85;;;;;;;;;;6241345;28;24642;-78
2024/01/31 07:20:05;;;;;;;64.43;38.58;;;;;;;;;;6244160;28;24546;-78
2024/01/31 07:23:06;;;;;;;58.70;38.38;;;;;;;;;;6239825;28;24834;-78
2024/01/31 07:26:08;;;;;;;61.47;39.50;;;;;;;;;;6239684;28;24428;-74
2024/01/31 07:29:11;;;;;;;64.78;39.92;;;;;;;;;;6237805;28;24436;-75
2024/01/31 07:32:13;;;;;;;60.90;38.75;;;;;;;;;;6236520;28;24435;-74
2024/01/31 07:35:15;;;;;;;62.95;40.30;;;;;;;;;;6239184;28;24494;-74
2024/01/31 07:38:17;;;;;;;63.20;39.40;;;;;;;;;;6237422;28;24428;-73
2024/01/31 07:41:18;;;;;;;61.63;39.38;;;;;;;;;;6238175;28;24627;-74
2024/01/31 07:44:22;;;;;;;65.80;40.33;;;;;;;;;;6242113;28;24503;-73
2024/01/31 07:47:25;;;;;;;62.37;40.50;;;;;;;;;;6241518;28;24470;-74
2024/01/31 07:50:26;;;;;;;61.55;39.28;;;;;;;;;;6233248;28;24428;-74
2024/01/31 07:53:28;;;;;;;57.88;38.97;;;;;;;;;;6239425;28;24439;-74
2024/01/31 07:56:29;;;;;;;59.25;38.75;;;;;;;;;;6239836;28;24420;-75
2024/01/31 07:59:33;;;;;;;56.75;37.78;;;;;;;;;;6241243;28;24435;-74
2024/01/31 08:02:35;;;;;;;59.67;38.60;;;;;;;;;;6243608;28;24617;-74
2024/01/31 08:05:36;;;;;;;54.67;36.53;;;;;;;;;;6239843;28;24630;-74
2024/01/31 08:08:38;;;;;;;60.97;38.15;;;;;;;;;;6237847;28;24412;-74
2024/01/31 08:11:41;;;;;;;54.75;36.60;;;;;;;;;;6235305;28;24519;-74
2024/01/31 08:14:45;;;;;;;52.63;35.63;;;;;;;;;;6238496;28;24443;-74
2024/01/31 08:17:47;;;;;;;51.03;35.58;;;;;;;;;;6237845;28;24478;-74
2024/01/31 08:20:49;;;;;;;55.00;37.10;;;;;;;;;;6239834;28;24432;-74
2024/01/31 08:23:50;;;;;;;52.25;35.85;;;;;;;;;;6242541;28;24416;-73
2024/01/31 08:26:52;;;;;;;53.63;36.13;;;;;;;;;;6241732;28;24487;-74
2024/01/31 08:29:56;;;;;;;52.88;36.17;;;;;;;;;;6240919;28;24439;-74
2024/01/31 08:32:57;;;;;;;53.15;36.65;;;;;;;;;;6221313;28;24840;-74
2024/01/31 08:35:59;;;;;;;52.67;36.83;;;;;;;;;;6239007;28;24897;-74
2024/01/31 08:39:01;;;;;;;56.67;39.15;;;;;;;;;;6237717;28;24607;-74
2024/01/31 08:42:03;;;;;;;56.25;39.67;;;;;;;;;;6237899;28;24423;-74
2024/01/31 08:45:09;;;;;;;54.00;37.70;;;;;;;;;;6238460;28;24424;-74
2024/01/31 08:48:11;;;;;;;54.85;37.05;;;;;;;;;;6238969;28;24420;-75
2024/01/31 08:51:14;;;;;;;54.58;37.42;;;;;;;;;;6239243;28;24424;-75
2024/01/31 08:54:15;;;;;;;51.10;36.38;;;;;;;;;;6239661;28;24767;-74
2024/01/31 08:57:17;;;;;;;54.50;36.63;;;;;;;;;;6237730;28;24500;-74
2024/01/31 09:00:20;;;;;;;49.55;35.47;;;;;;;;;;6239402;28;24606;-75
2024/01/31 09:03:23;;;;;;;45.90;34.80;;;;;;;;;;6238531;28;24431;-75
2024/01/31 09:06:25;;;;;;;51.08;35.95;;;;;;;;;;6240078;28;24427;-75
2024/01/31 09:09:26;;;;;;;47.00;34.50;;;;;;;;;;6239189;28;24424;-74
2024/01/31 09:12:29;;;;;;;47.08;34.53;;;;;;;;;;6239204;28;24940;-74
2024/01/31 09:15:32;;;;;;;45.63;33.20;;;;;;;;;;6238893;28;24435;-73
2024/01/31 09:18:35;;;;;;;47.58;33.88;;;;;;;;;;6235940;28;24427;-75
2024/01/31 09:21:37;;;;;;;42.53;31.98;;;;;;;;;;6236788;28;24431;-75
2024/01/31 09:24:38;;;;;;;46.95;33.80;;;;;;;;;;6240412;28;24451;-75
2024/01/31 09:27:40;;;;;;;44.20;33.65;;;;;;;;;;6236531;28;24428;-75
2024/01/31 09:30:44;;;;;;;45.20;33.55;;;;;;;;;;6236143;28;24420;-75
2024/01/31 09:33:45;;;;;;;39.55;31.40;;;;;;;;;;6239500;28;24486;-75
2024/01/31 09:36:48;;;;;;;40.50;31.30;;;;;;;;;;6239399;28;24478;-75
2024/01/31 09:39:54;;;;;;;39.00;31.13;;;;;;;;;;6236025;28;24831;-74
2024/01/31 09:42:55;;;;;;;39.85;31.75;;;;;;;;;;6246928;28;24874;-74
2024/01/31 09:46:00;;;;;;;39.55;30.13;;;;;;;;;;6240140;28;24622;-77
2024/01/31 09:49:01;;;;;;;39.58;30.63;;;;;;;;;;6244366;28;24669;-74
2024/01/31 09:52:04;;;;;;;36.38;29.98;;;;;;;;;;6242347;28;24486;-75
2024/01/31 09:55:09;;;;;;;36.00;28.60;;;;;;;;;;6242155;28;24466;-75
2024/01/31 09:58:11;;;;;;;39.90;29.77;;;;;;;;;;6243167;28;24451;-75
2024/01/31 10:01:16;;;;;;;37.05;29.45;;;;;;;;;;6243774;28;24786;-74
2024/01/31 10:04:18;;;;;;;38.25;29.77;;;;;;;;;;6239630;28;24443;-75
2024/01/31 10:07:22;;;;;;;37.40;29.23;;;;;;;;;;6243016;28;24499;-74
2024/01/31 10:10:24;;;;;;;34.33;28.13;;;;;;;;;;6240920;28;24487;-74
2024/01/31 10:13:25;;;;;;;35.28;28.88;;;;;;;;;;6244851;28;24416;-74
2024/01/31 10:16:28;;;;;;;35.37;28.37;;;;;;;;;;6243613;28;24805;-74
2024/01/31 10:19:30;;;;;;;35.78;29.05;;;;;;;;;;6243073;28;24428;-75
2024/01/31 10:22:32;;;;;;;36.80;28.58;;;;;;;;;;6240916;28;24901;-74
2024/01/31 10:25:33;;;;;;;32.88;28.73;;;;;;;;;;6242363;28;24432;-74
2024/01/31 10:28:35;;;;;;;36.33;29.20;;;;;;;;;;6242686;28;24420;-74
2024/01/31 10:31:40;;;;;;;35.20;29.05;;;;;;;;;;6241359;28;24511;-77
2024/01/31 10:34:42;;;;;;;33.97;27.98;;;;;;;;;;6244528;28;24447;-74
2024/01/31 10:37:44;;;;;;;34.15;29.20;;;;;;;;;;6242687;28;24495;-74
2024/01/31 10:40:48;;;;;;;37.72;30.88;;;;;;;;;;6242312;28;24475;-74
2024/01/31 10:43:50;;;;;;;35.43;29.53;;;;;;;;;;6243583;28;24432;-74
2024/01/31 10:46:53;;;;;;;37.63;30.20;;;;;;;;;;6244395;28;24463;-74
2024/01/31 10:49:55;;;;;;;76.50;55.63;;;;;;;;;;6241591;28;24438;-74
2024/01/31 10:52:57;;;;;;;60.28;45.70;;;;;;;;;;6241345;28;24424;-75
2024/01/31 10:55:59;;;;;;;43.05;35.10;;;;;;;;;;6241779;28;24611;-78
2024/01/31 10:59:01;;;;;;;40.90;30.60;;;;;;;;;;6237934;28;24522;-79
2024/01/31 11:02:04;;;;;;;36.08;29.58;;;;;;;;;;6242027;28;24423;-78
2024/01/31 11:05:06;;;;;;;35.65;28.25;;;;;;;;;;6249238;28;24424;-78
2024/01/31 11:08:16;;;;;;;38.90;29.13;;;;;;;;;;6253967;28;24427;-79
2024/01/31 11:11:19;;;;;;;39.38;29.55;;;;;;;;;;6241579;28;24420;-78
2024/01/31 11:14:26;;;;;;;39.78;29.70;;;;;;;;;;6239231;28;24486;-78
2024/01/31 11:17:34;;;;;;;34.97;28.23;;;;;;;;;;6242337;28;24579;-78
2024/01/31 11:20:36;;;;;;;39.58;29.00;;;;;;;;;;6241839;28;24424;-78
2024/01/31 11:23:39;;;;;;;35.20;27.25;;;;;;;;;;6238761;28;24512;-79
2024/01/31 11:26:41;;;;;;;40.85;30.10;;;;;;;;;;6236540;28;24703;-77
2024/01/31 11:29:44;;;;;;;40.92;30.02;;;;;;;;;;6242205;28;24427;-77
2024/01/31 11:32:47;;;;;;;39.72;28.77;;;;;;;;;;6240975;28;24428;-78
2024/01/31 11:35:49;;;;;;;37.58;28.45;;;;;;;;;;6244404;28;24606;-78
2024/01/31 11:38:51;;;;;;;37.60;27.88;;;;;;;;;;6240319;28;24424;-78
2024/01/31 11:41:54;;;;;;;35.53;27.88;;;;;;;;;;6239961;28;24439;-78
2024/01/31 11:44:55;;;;;;;37.83;29.97;;;;;;;;;;6238902;28;24929;-77
2024/01/31 11:47:59;;;;;;;39.30;30.87;;;;;;;;;;6240718;28;24618;-77
2024/01/31 11:51:01;;;;;;;39.08;30.50;;;;;;;;;;6241017;28;24833;-78
2024/01/31 11:54:02;;;;;;;40.78;30.58;;;;;;;;;;6241640;28;24444;-78
2024/01/31 11:57:04;;;;;;;44.67;33.05;;;;;;;;;;6235496;28;24424;-79
2024/01/31 12:00:07;;;;;;;43.42;32.60;;;;;;;;;;6239866;28;24432;-78
2024/01/31 12:03:11;;;;;;;45.03;32.83;;;;;;;;;;6240465;28;24420;-79
2024/01/31 12:06:18;;;;;;;41.75;32.05;;;;;;;;;;6241587;28;24439;-80
2024/01/31 12:09:19;;;;;;;43.65;33.55;;;;;;;;;;6238827;28;24590;-78
2024/01/31 12:12:21;;;;;;;45.22;32.22;;;;;;;;;;6240567;28;24424;-79
2024/01/31 12:15:22;;;;;;;43.90;32.63;;;;;;;;;;6234343;28;24436;-79
2024/01/31 12:18:25;;;;;;;38.47;30.52;;;;;;;;;;6239405;28;24428;-79
2024/01/31 12:21:27;;;;;;;38.45;30.27;;;;;;;;;;6239245;28;24431;-78
2024/01/31 12:24:29;;;;;;;37.65;28.80;;;;;;;;;;6242157;28;24432;-79
2024/01/31 12:27:32;;;;;;;38.08;28.58;;;;;;;;;;6237814;28;24431;-77
2024/01/31 12:30:34;;;;;;;38.05;29.13;;;;;;;;;;6238174;28;24415;-77
2024/01/31 12:33:37;;;;;;;37.90;28.85;;;;;;;;;;6240120;28;24430;-78
2024/01/31 12:36:38;;;;;;;39.22;29.40;;;;;;;;;;6237947;28;24654;-78
2024/01/31 12:39:40;;;;;;;37.65;29.10;;;;;;;;;;6238790;28;24596;-78
2024/01/31 12:42:41;;;;;;;35.65;27.42;;;;;;;;;;6264288;28;24843;-78
2024/01/31 12:45:44;;;;;;;39.10;27.35;;;;;;;;;;6245256;28;24806;-79
2024/01/31 12:48:47;;;;;;;39.15;28.60;;;;;;;;;;6239687;28;24492;-78
2024/01/31 12:51:49;;;;;;;38.50;27.77;;;;;;;;;;6240835;28;24562;-79
2024/01/31 12:54:50;;;;;;;36.80;27.55;;;;;;;;;;6238504;28;24456;-78
2024/01/31 12:57:52;;;;;;;37.92;27.42;;;;;;;;;;6236166;28;24417;-79
2024/01/31 13:00:53;;;;;;;35.50;26.83;;;;;;;;;;6238508;28;24421;-79
2024/01/31 13:03:58;;;;;;;37.70;27.48;;;;;;;;;;6242579;28;24618;-78
2024/01/31 13:07:02;;;;;;;37.83;26.37;;;;;;;;;;6239679;28;24817;-78
2024/01/31 13:10:05;;;;;;;34.50;24.50;;;;;;;;;;6238160;28;24627;-78
2024/01/31 13:13:07;;;;;;;33.33;23.90;;;;;;;;;;6241442;28;24419;-79
2024/01/31 13:16:09;;;;;;;38.88;25.20;;;;;;;;;;6243139;28;24436;-75
2024/01/31 13:19:13;;;;;;;36.63;25.23;;;;;;;;;;6242616;28;24474;-75
2024/01/31 13:22:15;;;;;;;37.80;24.98;;;;;;;;;;6241078;28;24666;-75
2024/01/31 13:25:17;;;;;;;33.20;24.63;;;;;;;;;;6249960;28;24450;-75
2024/01/31 13:28:19;;;;;;;33.65;24.27;;;;;;;;;;6243663;28;24436;-75
2024/01/31 13:31:20;;;;;;;32.13;23.57;;;;;;;;;;6247706;28;24455;-75
2024/01/31 13:34:24;;;;;;;33.58;23.77;;;;;;;;;;6244957;28;24828;-75
2024/01/31 13:37:26;;;;;;;36.92;24.58;;;;;;;;;;6244731;28;24417;-74
2024/01/31 13:40:27;;;;;;;32.95;24.00;;;;;;;;;;6244395;28;24832;-75
2024/01/31 13:43:29;;;;;;;31.95;23.00;;;;;;;;;;6242934;28;24825;-74
2024/01/31 13:46:30;;;;;;;30.83;21.77;;;;;;;;;;6240912;28;24654;-75
2024/01/31 13:49:35;;;;;;;33.15;22.55;;;;;;;;;;6241300;28;24425;-75
2024/01/31 13:52:36;;;;;;;34.90;23.20;;;;;;;;;;6242466;28;24684;-75
2024/01/31 13:55:38;;;;;;;32.73;22.50;;;;;;;;;;6244881;28;24847;-76
2024/01/31 13:58:39;;;;;;;33.35;24.35;;;;;;;;;;6238158;28;24460;-75
2024/01/31 14:01:41;;;;;;;42.20;30.73;;;;;;;;;;6244807;28;24435;-76
2024/01/31 14:04:44;;;;;;;81.05;51.70;;;;;;;;;;6241793;28;24424;-73
2024/01/31 14:07:46;;;;;;;37.70;27.27;;;;;;;;;;6240775;28;24535;-75
2024/01/31 14:10:47;;;;;;;30.73;22.80;;;;;;;;;;6242032;28;24461;-74
2024/01/31 14:13:49;;;;;;;29.33;21.88;;;;;;;;;;6240626;28;24435;-74
2024/01/31 14:16:51;;;;;;;28.90;21.00;;;;;;;;;;6243360;28;24466;-74
2024/01/31 14:19:54;;;;;;;28.80;21.30;;;;;;;;;;6243682;28;24483;-74
2024/01/31 14:22:56;;;;;;;28.10;20.77;;;;;;;;;;6241298;28;24820;-74
2024/01/31 14:25:57;;;;;;;31.45;22.70;;;;;;;;;;6242416;28;24428;-76
2024/01/31 14:28:59;;;;;;;30.73;21.75;;;;;;;;;;6224697;28;24678;-74
2024/01/31 14:32:00;;;;;;;30.35;21.80;;;;;;;;;;6237985;28;24543;-74
2024/01/31 14:35:06;;;;;;;30.40;21.67;;;;;;;;;;6242801;28;24448;-75
2024/01/31 14:38:07;;;;;;;30.63;21.23;;;;;;;;;;6244025;28;24515;-75
2024/01/31 14:41:09;;;;;;;31.83;23.05;;;;;;;;;;6244900;28;24435;-74
2024/01/31 14:44:11;;;;;;;28.05;20.30;;;;;;;;;;6241721;28;24438;-74
2024/01/31 14:47:13;;;;;;;31.95;21.92;;;;;;;;;;6241157;28;24758;-74
2024/01/31 14:50:15;;;;;;;30.98;21.33;;;;;;;;;;6242414;28;24399;-74
2024/01/31 14:53:17;;;;;;;32.13;20.40;;;;;;;;;;6243269;28;24442;-74
2024/01/31 14:56:19;;;;;;;34.53;22.37;;;;;;;;;;6240374;28;24496;-74
2024/01/31 14:59:22;;;;;;;33.53;22.80;;;;;;;;;;6239650;28;24431;-75
2024/01/31 15:02:25;;;;;;;33.80;21.83;;;;;;;;;;6240029;28;24432;-75
2024/01/31 15:05:30;;;;;;;31.70;20.48;;;;;;;;;;6241265;28;24677;-75
2024/01/31 15:08:31;;;;;;;32.33;20.70;;;;;;;;;;6239252;28;24420;-74
2024/01/31 15:11:33;;;;;;;34.50;21.77;;;;;;;;;;6240194;28;24443;-74
2024/01/31 15:14:34;;;;;;;30.52;20.90;;;;;;;;;;6242890;28;24837;-74
2024/01/31 15:17:36;;;;;;;31.77;20.05;;;;;;;;;;6239465;28;24458;-74
2024/01/31 15:20:40;;;;;;;28.05;20.42;;;;;;;;;;6242330;28;24412;-75
2024/01/31 15:23:42;;;;;;;28.52;20.20;;;;;;;;;;6236313;28;24419;-75
2024/01/31 15:26:44;;;;;;;29.80;19.42;;;;;;;;;;6241463;28;24428;-75
2024/01/31 15:29:46;;;;;;;30.08;20.00;;;;;;;;;;6239432;28;24428;-74
2024/01/31 15:32:47;;;;;;;28.38;20.27;;;;;;;;;;6238233;28;24416;-75
2024/01/31 15:35:50;;;;;;;32.08;21.90;;;;;;;;;;6242165;28;24434;-74
2024/01/31 15:38:53;;;;;;;33.10;22.50;;;;;;;;;;6243959;28;24431;-74
2024/01/31 15:41:55;;;;;;;74.93;44.08;;;;;;;;;;6239088;28;24470;-76
2024/01/31 15:45:00;;;;;;;56.05;33.35;;;;;;;;;;6238665;28;24492;-75
2024/01/31 15:48:02;;;;;;;33.33;22.23;;;;;;;;;;6236997;28;24424;-75
2024/01/31 15:51:05;;;;;;;30.37;20.13;;;;;;;;;;6236270;28;24416;-75
2024/01/31 15:54:07;;;;;;;30.23;19.70;;;;;;;;;;6236879;28;24622;-75
2024/01/31 15:57:08;;;;;;;29.15;19.02;;;;;;;;;;6240072;28;24473;-75
2024/01/31 16:00:10;;;;;;;29.10;18.42;;;;;;;;;;6248553;28;24871;-75
2024/01/31 16:03:12;;;;;;;27.33;18.20;;;;;;;;;;6248927;28;24431;-75
2024/01/31 16:06:15;;;;;;;28.23;18.92;;;;;;;;;;6237569;28;24424;-76
2024/01/31 16:09:17;;;;;;;29.35;18.35;;;;;;;;;;6239015;28;24412;-74
2024/01/31 16:12:19;;;;;;;29.55;19.83;;;;;;;;;;6240286;28;24427;-75
2024/01/31 16:15:21;;;;;;;27.67;18.20;;;;;;;;;;6239721;28;24448;-75
2024/01/31 16:18:27;;;;;;;27.40;19.25;;;;;;;;;;6240403;28;24420;-73
2024/01/31 16:21:31;;;;;;;27.50;19.13;;;;;;;;;;6250818;28;24680;-75
2024/01/31 16:24:32;;;;;;;31.95;19.80;;;;;;;;;;6245625;28;24492;-75
2024/01/31 16:27:36;;;;;;;27.40;19.13;;;;;;;;;;6243393;28;24412;-75
2024/01/31 16:30:38;;;;;;;28.80;19.30;;;;;;;;;;6239881;28;24428;-75
2024/01/31 16:33:40;;;;;;;31.17;20.10;;;;;;;;;;6238539;28;25085;-75
2024/01/31 16:36:43;;;;;;;29.13;19.48;;;;;;;;;;6238379;28;24462;-75
2024/01/31 16:39:45;;;;;;;33.05;21.30;;;;;;;;;;6239108;28;24652;-75
2024/01/31 16:42:46;;;;;;;30.97;20.63;;;;;;;;;;6240963;28;25118;-74
2024/01/31 16:45:48;;;;;;;29.50;20.35;;;;;;;;;;6235636;28;24507;-75
2024/01/31 16:48:51;;;;;;;30.27;20.23;;;;;;;;;;6241152;28;24423;-74
2024/01/31 16:51:54;;;;;;;29.87;20.07;;;;;;;;;;6240544;28;24430;-74
2024/01/31 16:54:55;;;;;;;31.33;21.40;;;;;;;;;;6238237;28;25128;-73
2024/01/31 16:57:58;;;;;;;31.90;20.25;;;;;;;;;;6238872;28;25076;-74
2024/01/31 17:01:01;;;;;;;31.65;20.42;;;;;;;;;;6238292;28;24425;-74
2024/01/31 17:04:02;;;;;;;29.20;20.48;;;;;;;;;;6241072;28;24848;-75
2024/01/31 17:07:06;;;;;;;32.22;21.42;;;;;;;;;;6238754;28;24670;-75
2024/01/31 17:10:08;;;;;;;32.22;21.17;;;;;;;;;;6234638;28;24535;-74
2024/01/31 17:13:13;;;;;;;32.45;20.75;;;;;;;;;;6241233;28;24428;-76
2024/01/31 17:16:18;;;;;;;31.58;21.15;;;;;;;;;;6236447;28;24549;-74
2024/01/31 17:19:21;;;;;;;31.70;21.33;;;;;;;;;;6238861;28;24427;-76
2024/01/31 17:22:24;;;;;;;31.03;20.90;;;;;;;;;;6238476;28;24885;-74
2024/01/31 17:25:26;;;;;;;29.83;20.83;;;;;;;;;;6241032;28;24474;-75
2024/01/31 17:28:27;;;;;;;30.85;21.45;;;;;;;;;;6233368;28;24440;-74
2024/01/31 17:31:29;;;;;;;34.97;21.88;;;;;;;;;;6236466;28;24431;-74
2024/01/31 17:34:31;;;;;;;31.17;21.25;;;;;;;;;;6246064;28;24602;-75
2024/01/31 17:37:34;;;;;;;31.23;21.67;;;;;;;;;;6238071;28;24435;-74
2024/01/31 17:40:37;;;;;;;30.73;21.67;;;;;;;;;;6236393;28;24479;-74